sensor_id;sensor_type;location;lat;lon;timestamp;P1;durP1;ratioP1;P2;durP2;ratioP2
26686;SDS011;14298;50.900;4.648;2022-07-03T00:01:29;4.30;;;3.50;;
26686;SDS011;14298;50.900;4.648;2022-07-03T00:03:57;4.43;;;3.90;;
26686;SDS011;14298;50.900;4.648;2022-07-03T00:06:26;7.87;;;3.50;;
26686;SDS011;14298;50.900;4.648;2022-07-03T00:08:56;5.20;;;3.50;;
26686;SDS011;14298;50.900;4.648;2022-07-03T00:11:26;7.80;;;3.80;;
26686;SDS011;14298;50.900;4.648;2022-07-03T00:13:54;7.10;;;3.70;;
26686;SDS011;14298;50.900;4.648;2022-07-03T00:16:23;4.57;;;3.43;;
26686;SDS011;14298;50.900;4.648;2022-07-03T00:18:51;9.40;;;3.20;;
26686;SDS011;14298;50.900;4.648;2022-07-03T00:21:21;5.20;;;2.90;;
26686;SDS011;14298;50.900;4.648;2022-07-03T00:23:56;3.20;;;2.90;;
26686;SDS011;14298;50.900;4.648;2022-07-03T00:26:29;3.97;;;2.80;;
26686;SDS011;14298;50.900;4.648;2022-07-03T00:29:00;3.90;;;2.90;;
26686;SDS011;14298;50.900;4.648;2022-07-03T00:31:30;5.47;;;2.70;;
26686;SDS011;14298;50.900;4.648;2022-07-03T00:34:00;3.73;;;2.80;;
26686;SDS011;14298;50.900;4.648;2022-07-03T00:36:30;4.27;;;2.73;;
26686;SDS011;14298;50.900;4.648;2022-07-03T00:39:02;3.43;;;2.70;;
26686;SDS011;14298;50.900;4.648;2022-07-03T00:41:32;4.53;;;2.80;;
26686;SDS011;14298;50.900;4.648;2022-07-03T00:44:02;4.33;;;3.20;;
26686;SDS011;14298;50.900;4.648;2022-07-03T00:46:31;3.70;;;2.70;;
26686;SDS011;14298;50.900;4.648;2022-07-03T00:49:01;6.10;;;3.30;;
26686;SDS011;14298;50.900;4.648;2022-07-03T00:51:33;6.90;;;3.33;;
26686;SDS011;14298;50.900;4.648;2022-07-03T00:54:04;4.67;;;3.43;;
26686;SDS011;14298;50.900;4.648;2022-07-03T00:56:34;5.13;;;3.33;;
26686;SDS011;14298;50.900;4.648;2022-07-03T00:59:06;5.63;;;3.27;;
26686;SDS011;14298;50.900;4.648;2022-07-03T01:01:35;5.80;;;3.23;;
26686;SDS011;14298;50.900;4.648;2022-07-03T01:07:06;6.20;;;3.27;;
26686;SDS011;14298;50.900;4.648;2022-07-03T01:09:44;5.33;;;3.37;;
26686;SDS011;14298;50.900;4.648;2022-07-03T01:12:07;4.50;;;3.50;;
26686;SDS011;14298;50.900;4.648;2022-07-03T01:14:48;6.27;;;3.40;;
26686;SDS011;14298;50.900;4.648;2022-07-03T01:17:25;5.40;;;3.40;;
26686;SDS011;14298;50.900;4.648;2022-07-03T01:19:59;5.17;;;3.10;;
26686;SDS011;14298;50.900;4.648;2022-07-03T01:22:29;2.90;;;2.70;;
26686;SDS011;14298;50.900;4.648;2022-07-03T01:30:34;7.23;;;3.37;;
26686;SDS011;14298;50.900;4.648;2022-07-03T01:33:06;8.63;;;3.27;;
26686;SDS011;14298;50.900;4.648;2022-07-03T01:35:42;3.50;;;3.20;;
26686;SDS011;14298;50.900;4.648;2022-07-03T01:38:09;3.40;;;3.10;;
26686;SDS011;14298;50.900;4.648;2022-07-03T01:40:39;4.67;;;3.67;;
26686;SDS011;14298;50.900;4.648;2022-07-03T01:43:10;4.03;;;3.13;;
26686;SDS011;14298;50.900;4.648;2022-07-03T01:45:43;3.30;;;3.00;;
26686;SDS011;14298;50.900;4.648;2022-07-03T01:48:13;4.60;;;2.97;;
26686;SDS011;14298;50.900;4.648;2022-07-03T01:50:42;5.60;;;3.03;;
26686;SDS011;14298;50.900;4.648;2022-07-03T01:53:12;4.63;;;2.97;;
26686;SDS011;14298;50.900;4.648;2022-07-03T01:55:43;5.70;;;3.20;;
26686;SDS011;14298;50.900;4.648;2022-07-03T01:58:13;7.07;;;3.07;;
26686;SDS011;14298;50.900;4.648;2022-07-03T02:00:45;5.33;;;2.90;;
26686;SDS011;14298;50.900;4.648;2022-07-03T02:03:21;7.27;;;2.73;;
26686;SDS011;14298;50.900;4.648;2022-07-03T02:05:47;4.83;;;3.10;;
26686;SDS011;14298;50.900;4.648;2022-07-03T02:11:13;3.33;;;2.40;;
26686;SDS011;14298;50.900;4.648;2022-07-03T02:13:57;5.40;;;2.70;;
26686;SDS011;14298;50.900;4.648;2022-07-03T02:22:19;4.23;;;2.60;;
26686;SDS011;14298;50.900;4.648;2022-07-03T02:24:49;5.00;;;2.27;;
26686;SDS011;14298;50.900;4.648;2022-07-03T02:27:22;5.87;;;3.10;;
26686;SDS011;14298;50.900;4.648;2022-07-03T02:30:02;2.57;;;2.27;;
26686;SDS011;14298;50.900;4.648;2022-07-03T02:32:36;3.90;;;2.33;;
26686;SDS011;14298;50.900;4.648;2022-07-03T02:35:09;3.10;;;1.93;;
26686;SDS011;14298;50.900;4.648;2022-07-03T02:37:47;2.73;;;2.00;;
26686;SDS011;14298;50.900;4.648;2022-07-03T02:40:24;3.03;;;2.17;;
26686;SDS011;14298;50.900;4.648;2022-07-03T02:43:02;2.47;;;1.60;;
26686;SDS011;14298;50.900;4.648;2022-07-03T02:45:25;2.37;;;1.97;;
26686;SDS011;14298;50.900;4.648;2022-07-03T02:48:04;3.10;;;1.70;;
26686;SDS011;14298;50.900;4.648;2022-07-03T02:50:34;3.03;;;1.70;;
26686;SDS011;14298;50.900;4.648;2022-07-03T02:53:07;2.77;;;1.67;;
26686;SDS011;14298;50.900;4.648;2022-07-03T02:55:40;1.80;;;1.70;;
26686;SDS011;14298;50.900;4.648;2022-07-03T03:01:07;2.30;;;1.73;;
26686;SDS011;14298;50.900;4.648;2022-07-03T03:03:37;3.53;;;1.67;;
26686;SDS011;14298;50.900;4.648;2022-07-03T03:06:15;3.10;;;1.50;;
26686;SDS011;14298;50.900;4.648;2022-07-03T03:08:48;3.77;;;1.30;;
26686;SDS011;14298;50.900;4.648;2022-07-03T03:12:02;2.27;;;1.30;;
26686;SDS011;14298;50.900;4.648;2022-07-03T03:13:56;2.80;;;1.40;;
26686;SDS011;14298;50.900;4.648;2022-07-03T03:16:26;1.87;;;1.30;;
26686;SDS011;14298;50.900;4.648;2022-07-03T03:18:54;4.10;;;1.83;;
26686;SDS011;14298;50.900;4.648;2022-07-03T03:21:23;2.93;;;1.37;;
26686;SDS011;14298;50.900;4.648;2022-07-03T03:23:55;3.13;;;1.63;;
26686;SDS011;14298;50.900;4.648;2022-07-03T03:26:26;3.73;;;1.53;;
26686;SDS011;14298;50.900;4.648;2022-07-03T03:28:55;2.27;;;1.40;;
26686;SDS011;14298;50.900;4.648;2022-07-03T03:31:23;3.87;;;1.60;;
26686;SDS011;14298;50.900;4.648;2022-07-03T03:33:53;2.60;;;1.50;;
26686;SDS011;14298;50.900;4.648;2022-07-03T03:36:23;3.20;;;1.40;;
26686;SDS011;14298;50.900;4.648;2022-07-03T03:38:52;6.87;;;1.43;;
26686;SDS011;14298;50.900;4.648;2022-07-03T03:41:21;3.70;;;1.47;;
26686;SDS011;14298;50.900;4.648;2022-07-03T03:43:50;4.17;;;1.40;;
26686;SDS011;14298;50.900;4.648;2022-07-03T03:46:18;4.13;;;1.37;;
26686;SDS011;14298;50.900;4.648;2022-07-03T03:48:47;4.90;;;1.50;;
26686;SDS011;14298;50.900;4.648;2022-07-03T03:51:15;3.53;;;1.50;;
26686;SDS011;14298;50.900;4.648;2022-07-03T03:53:44;4.80;;;1.40;;
26686;SDS011;14298;50.900;4.648;2022-07-03T03:56:12;2.10;;;1.47;;
26686;SDS011;14298;50.900;4.648;2022-07-03T03:58:43;2.17;;;1.40;;
26686;SDS011;14298;50.900;4.648;2022-07-03T04:01:12;3.10;;;1.20;;
26686;SDS011;14298;50.900;4.648;2022-07-03T04:03:40;3.43;;;1.37;;
26686;SDS011;14298;50.900;4.648;2022-07-03T04:06:08;2.07;;;1.07;;
26686;SDS011;14298;50.900;4.648;2022-07-03T04:08:37;1.37;;;0.90;;
26686;SDS011;14298;50.900;4.648;2022-07-03T04:11:05;2.10;;;1.50;;
26686;SDS011;14298;50.900;4.648;2022-07-03T04:13:33;2.27;;;1.20;;
26686;SDS011;14298;50.900;4.648;2022-07-03T04:16:02;4.30;;;1.10;;
26686;SDS011;14298;50.900;4.648;2022-07-03T04:18:31;2.10;;;1.20;;
26686;SDS011;14298;50.900;4.648;2022-07-03T04:20:59;3.47;;;1.20;;
26686;SDS011;14298;50.900;4.648;2022-07-03T04:23:28;2.20;;;1.17;;
26686;SDS011;14298;50.900;4.648;2022-07-03T04:26:03;3.47;;;1.30;;
26686;SDS011;14298;50.900;4.648;2022-07-03T04:28:32;3.70;;;1.03;;
26686;SDS011;14298;50.900;4.648;2022-07-03T04:31:01;5.13;;;1.00;;
26686;SDS011;14298;50.900;4.648;2022-07-03T04:33:29;2.03;;;1.07;;
26686;SDS011;14298;50.900;4.648;2022-07-03T04:35:57;6.07;;;1.33;;
26686;SDS011;14298;50.900;4.648;2022-07-03T04:38:26;5.30;;;1.00;;
26686;SDS011;14298;50.900;4.648;2022-07-03T04:40:54;1.07;;;0.87;;
26686;SDS011;14298;50.900;4.648;2022-07-03T04:43:22;1.47;;;0.93;;
26686;SDS011;14298;50.900;4.648;2022-07-03T04:45:51;4.80;;;1.00;;
26686;SDS011;14298;50.900;4.648;2022-07-03T04:48:19;2.10;;;1.20;;
26686;SDS011;14298;50.900;4.648;2022-07-03T04:50:47;1.53;;;0.90;;
26686;SDS011;14298;50.900;4.648;2022-07-03T04:53:16;2.40;;;0.87;;
26686;SDS011;14298;50.900;4.648;2022-07-03T04:55:44;2.87;;;1.20;;
26686;SDS011;14298;50.900;4.648;2022-07-03T04:58:12;5.30;;;1.40;;
26686;SDS011;14298;50.900;4.648;2022-07-03T05:00:42;2.17;;;1.10;;
26686;SDS011;14298;50.900;4.648;2022-07-03T05:03:11;2.60;;;1.10;;
26686;SDS011;14298;50.900;4.648;2022-07-03T05:05:40;2.00;;;0.80;;
26686;SDS011;14298;50.900;4.648;2022-07-03T05:08:08;2.53;;;0.97;;
26686;SDS011;14298;50.900;4.648;2022-07-03T05:10:37;1.90;;;0.93;;
26686;SDS011;14298;50.900;4.648;2022-07-03T05:13:05;1.43;;;0.93;;
26686;SDS011;14298;50.900;4.648;2022-07-03T05:15:33;1.80;;;1.07;;
26686;SDS011;14298;50.900;4.648;2022-07-03T05:18:01;3.13;;;1.00;;
26686;SDS011;14298;50.900;4.648;2022-07-03T05:20:30;1.67;;;0.83;;
26686;SDS011;14298;50.900;4.648;2022-07-03T05:22:59;1.23;;;0.70;;
26686;SDS011;14298;50.900;4.648;2022-07-03T05:25:29;2.23;;;0.77;;
26686;SDS011;14298;50.900;4.648;2022-07-03T05:27:58;2.37;;;1.10;;
26686;SDS011;14298;50.900;4.648;2022-07-03T05:30:29;3.77;;;1.20;;
26686;SDS011;14298;50.900;4.648;2022-07-03T05:32:57;2.30;;;0.90;;
26686;SDS011;14298;50.900;4.648;2022-07-03T05:35:25;1.17;;;0.70;;
26686;SDS011;14298;50.900;4.648;2022-07-03T05:37:54;2.07;;;1.23;;
26686;SDS011;14298;50.900;4.648;2022-07-03T05:40:22;1.73;;;1.00;;
26686;SDS011;14298;50.900;4.648;2022-07-03T05:42:50;2.17;;;0.70;;
26686;SDS011;14298;50.900;4.648;2022-07-03T05:45:20;1.50;;;1.00;;
26686;SDS011;14298;50.900;4.648;2022-07-03T05:47:48;0.83;;;0.73;;
26686;SDS011;14298;50.900;4.648;2022-07-03T05:50:16;0.90;;;0.73;;
26686;SDS011;14298;50.900;4.648;2022-07-03T05:52:44;2.07;;;1.00;;
26686;SDS011;14298;50.900;4.648;2022-07-03T05:55:13;1.70;;;1.00;;
26686;SDS011;14298;50.900;4.648;2022-07-03T05:57:41;2.83;;;1.17;;
26686;SDS011;14298;50.900;4.648;2022-07-03T06:00:10;2.97;;;1.30;;
26686;SDS011;14298;50.900;4.648;2022-07-03T06:02:39;3.73;;;1.20;;
26686;SDS011;14298;50.900;4.648;2022-07-03T06:05:07;2.60;;;1.60;;
26686;SDS011;14298;50.900;4.648;2022-07-03T06:07:36;4.27;;;1.10;;
26686;SDS011;14298;50.900;4.648;2022-07-03T06:10:04;2.90;;;1.50;;
26686;SDS011;14298;50.900;4.648;2022-07-03T06:12:33;4.43;;;2.40;;
26686;SDS011;14298;50.900;4.648;2022-07-03T06:15:02;2.43;;;1.60;;
26686;SDS011;14298;50.900;4.648;2022-07-03T06:17:30;3.77;;;1.70;;
26686;SDS011;14298;50.900;4.648;2022-07-03T06:20:00;2.50;;;1.40;;
26686;SDS011;14298;50.900;4.648;2022-07-03T06:22:30;4.07;;;1.70;;
26686;SDS011;14298;50.900;4.648;2022-07-03T06:24:58;3.60;;;1.63;;
26686;SDS011;14298;50.900;4.648;2022-07-03T06:27:27;2.67;;;1.80;;
26686;SDS011;14298;50.900;4.648;2022-07-03T06:29:55;3.77;;;1.43;;
26686;SDS011;14298;50.900;4.648;2022-07-03T06:32:24;5.10;;;1.60;;
26686;SDS011;14298;50.900;4.648;2022-07-03T06:34:52;3.33;;;1.50;;
26686;SDS011;14298;50.900;4.648;2022-07-03T06:37:21;4.80;;;1.53;;
26686;SDS011;14298;50.900;4.648;2022-07-03T06:39:50;6.70;;;1.73;;
26686;SDS011;14298;50.900;4.648;2022-07-03T06:42:18;4.20;;;1.40;;
26686;SDS011;14298;50.900;4.648;2022-07-03T06:44:46;4.50;;;1.70;;
26686;SDS011;14298;50.900;4.648;2022-07-03T06:47:15;3.03;;;1.60;;
26686;SDS011;14298;50.900;4.648;2022-07-03T06:49:43;3.80;;;1.30;;
26686;SDS011;14298;50.900;4.648;2022-07-03T06:52:11;3.47;;;1.53;;
26686;SDS011;14298;50.900;4.648;2022-07-03T06:54:40;4.90;;;1.50;;
26686;SDS011;14298;50.900;4.648;2022-07-03T06:57:10;3.03;;;1.50;;
26686;SDS011;14298;50.900;4.648;2022-07-03T06:59:40;5.13;;;1.50;;
26686;SDS011;14298;50.900;4.648;2022-07-03T07:02:09;4.03;;;1.50;;
26686;SDS011;14298;50.900;4.648;2022-07-03T07:04:38;2.20;;;1.10;;
26686;SDS011;14298;50.900;4.648;2022-07-03T07:07:07;2.00;;;1.00;;
26686;SDS011;14298;50.900;4.648;2022-07-03T07:09:35;2.73;;;0.90;;
26686;SDS011;14298;50.900;4.648;2022-07-03T07:12:04;4.50;;;1.20;;
26686;SDS011;14298;50.900;4.648;2022-07-03T07:14:32;3.57;;;1.40;;
26686;SDS011;14298;50.900;4.648;2022-07-03T07:17:01;3.03;;;1.00;;
26686;SDS011;14298;50.900;4.648;2022-07-03T07:19:31;2.83;;;1.10;;
26686;SDS011;14298;50.900;4.648;2022-07-03T07:21:59;2.87;;;1.00;;
26686;SDS011;14298;50.900;4.648;2022-07-03T07:24:28;3.40;;;1.10;;
26686;SDS011;14298;50.900;4.648;2022-07-03T07:26:56;2.73;;;1.00;;
26686;SDS011;14298;50.900;4.648;2022-07-03T07:29:24;3.97;;;0.97;;
26686;SDS011;14298;50.900;4.648;2022-07-03T07:31:53;3.17;;;1.10;;
26686;SDS011;14298;50.900;4.648;2022-07-03T07:34:22;1.90;;;0.80;;
26686;SDS011;14298;50.900;4.648;2022-07-03T07:36:50;2.80;;;1.00;;
26686;SDS011;14298;50.900;4.648;2022-07-03T07:39:18;3.87;;;1.60;;
26686;SDS011;14298;50.900;4.648;2022-07-03T07:41:47;2.97;;;1.17;;
26686;SDS011;14298;50.900;4.648;2022-07-03T07:44:15;2.63;;;1.00;;
26686;SDS011;14298;50.900;4.648;2022-07-03T07:46:43;2.37;;;1.20;;
26686;SDS011;14298;50.900;4.648;2022-07-03T07:49:11;1.70;;;0.97;;
26686;SDS011;14298;50.900;4.648;2022-07-03T07:51:40;2.95;;;1.10;;
26686;SDS011;14298;50.900;4.648;2022-07-03T07:54:08;2.03;;;1.00;;
26686;SDS011;14298;50.900;4.648;2022-07-03T07:56:37;3.03;;;1.10;;
26686;SDS011;14298;50.900;4.648;2022-07-03T07:59:05;7.92;;;1.15;;
26686;SDS011;14298;50.900;4.648;2022-07-03T08:01:33;1.92;;;0.80;;
26686;SDS011;14298;50.900;4.648;2022-07-03T08:04:20;9.48;;;1.17;;
26686;SDS011;14298;50.900;4.648;2022-07-03T08:07:06;3.15;;;0.75;;
26686;SDS011;14298;50.900;4.648;2022-07-03T08:09:34;2.80;;;1.10;;
26686;SDS011;14298;50.900;4.648;2022-07-03T08:12:03;3.52;;;1.35;;
26686;SDS011;14298;50.900;4.648;2022-07-03T08:14:32;2.67;;;1.20;;
26686;SDS011;14298;50.900;4.648;2022-07-03T08:17:00;2.72;;;0.90;;
26686;SDS011;14298;50.900;4.648;2022-07-03T08:19:28;1.65;;;0.82;;
26686;SDS011;14298;50.900;4.648;2022-07-03T08:21:57;2.70;;;0.90;;
26686;SDS011;14298;50.900;4.648;2022-07-03T08:24:25;1.92;;;1.00;;
26686;SDS011;14298;50.900;4.648;2022-07-03T08:26:53;1.80;;;0.70;;
26686;SDS011;14298;50.900;4.648;2022-07-03T08:29:22;3.60;;;1.12;;
26686;SDS011;14298;50.900;4.648;2022-07-03T08:31:50;2.95;;;0.90;;
26686;SDS011;14298;50.900;4.648;2022-07-03T08:34:18;1.12;;;0.75;;
26686;SDS011;14298;50.900;4.648;2022-07-03T08:36:47;3.85;;;1.00;;
26686;SDS011;14298;50.900;4.648;2022-07-03T08:39:15;3.47;;;1.30;;
26686;SDS011;14298;50.900;4.648;2022-07-03T08:41:43;2.58;;;0.60;;
26686;SDS011;14298;50.900;4.648;2022-07-03T08:44:13;2.08;;;0.70;;
26686;SDS011;14298;50.900;4.648;2022-07-03T08:46:42;1.70;;;0.70;;
26686;SDS011;14298;50.900;4.648;2022-07-03T08:49:12;2.87;;;0.80;;
26686;SDS011;14298;50.900;4.648;2022-07-03T08:51:40;2.15;;;0.78;;
26686;SDS011;14298;50.900;4.648;2022-07-03T08:54:09;3.37;;;1.30;;
26686;SDS011;14298;50.900;4.648;2022-07-03T08:56:38;2.95;;;1.07;;
26686;SDS011;14298;50.900;4.648;2022-07-03T08:59:08;2.22;;;1.00;;
26686;SDS011;14298;50.900;4.648;2022-07-03T09:01:36;5.08;;;1.10;;
26686;SDS011;14298;50.900;4.648;2022-07-03T09:04:10;2.30;;;0.93;;
26686;SDS011;14298;50.900;4.648;2022-07-03T09:06:40;2.22;;;0.98;;
26686;SDS011;14298;50.900;4.648;2022-07-03T09:09:09;3.58;;;1.00;;
26686;SDS011;14298;50.900;4.648;2022-07-03T09:11:38;2.62;;;1.12;;
26686;SDS011;14298;50.900;4.648;2022-07-03T09:14:07;2.17;;;1.10;;
26686;SDS011;14298;50.900;4.648;2022-07-03T09:16:35;2.40;;;1.00;;
26686;SDS011;14298;50.900;4.648;2022-07-03T09:19:04;2.27;;;0.90;;
26686;SDS011;14298;50.900;4.648;2022-07-03T09:21:39;2.47;;;1.00;;
26686;SDS011;14298;50.900;4.648;2022-07-03T09:24:09;3.62;;;1.30;;
26686;SDS011;14298;50.900;4.648;2022-07-03T09:26:49;5.45;;;1.55;;
26686;SDS011;14298;50.900;4.648;2022-07-03T09:29:09;4.00;;;1.12;;
26686;SDS011;14298;50.900;4.648;2022-07-03T09:31:40;1.60;;;0.70;;
26686;SDS011;14298;50.900;4.648;2022-07-03T09:34:08;3.22;;;1.10;;
26686;SDS011;14298;50.900;4.648;2022-07-03T09:36:37;1.80;;;0.80;;
26686;SDS011;14298;50.900;4.648;2022-07-03T09:44:39;1.55;;;0.65;;
26686;SDS011;14298;50.900;4.648;2022-07-03T09:57:45;5.50;;;0.80;;
26686;SDS011;14298;50.900;4.648;2022-07-03T10:00:19;2.12;;;1.05;;
26686;SDS011;14298;50.900;4.648;2022-07-03T10:05:24;2.62;;;0.85;;
26686;SDS011;14298;50.900;4.648;2022-07-03T10:10:26;1.23;;;0.63;;
26686;SDS011;14298;50.900;4.648;2022-07-03T10:12:57;1.17;;;0.50;;
26686;SDS011;14298;50.900;4.648;2022-07-03T10:15:28;2.58;;;0.70;;
26686;SDS011;14298;50.900;4.648;2022-07-03T10:17:57;2.50;;;0.90;;
26686;SDS011;14298;50.900;4.648;2022-07-03T10:20:31;1.13;;;0.60;;
26686;SDS011;14298;50.900;4.648;2022-07-03T10:23:17;1.75;;;0.65;;
26686;SDS011;14298;50.900;4.648;2022-07-03T10:25:49;2.70;;;0.80;;
26686;SDS011;14298;50.900;4.648;2022-07-03T10:28:18;1.83;;;0.73;;
26686;SDS011;14298;50.900;4.648;2022-07-03T10:30:47;4.58;;;0.57;;
26686;SDS011;14298;50.900;4.648;2022-07-03T10:33:17;2.08;;;0.70;;
26686;SDS011;14298;50.900;4.648;2022-07-03T10:35:49;5.15;;;0.80;;
26686;SDS011;14298;50.900;4.648;2022-07-03T10:38:38;1.65;;;0.98;;
26686;SDS011;14298;50.900;4.648;2022-07-03T10:44:08;3.65;;;0.70;;
26686;SDS011;14298;50.900;4.648;2022-07-03T10:46:55;3.23;;;0.60;;
26686;SDS011;14298;50.900;4.648;2022-07-03T10:49:23;1.80;;;0.47;;
26686;SDS011;14298;50.900;4.648;2022-07-03T10:54:29;1.25;;;0.60;;
26686;SDS011;14298;50.900;4.648;2022-07-03T11:02:30;2.87;;;0.50;;
26686;SDS011;14298;50.900;4.648;2022-07-03T11:13:05;3.50;;;1.57;;
26686;SDS011;14298;50.900;4.648;2022-07-03T11:15:41;2.00;;;0.50;;
26686;SDS011;14298;50.900;4.648;2022-07-03T11:21:02;3.23;;;0.60;;
26686;SDS011;14298;50.900;4.648;2022-07-03T11:23:48;5.60;;;0.50;;
26686;SDS011;14298;50.900;4.648;2022-07-03T11:26:32;1.47;;;0.57;;
26686;SDS011;14298;50.900;4.648;2022-07-03T11:29:00;3.17;;;0.70;;
26686;SDS011;14298;50.900;4.648;2022-07-03T11:31:28;0.70;;;0.50;;
26686;SDS011;14298;50.900;4.648;2022-07-03T11:33:58;2.50;;;0.60;;
26686;SDS011;14298;50.900;4.648;2022-07-03T11:36:31;2.30;;;0.73;;
26686;SDS011;14298;50.900;4.648;2022-07-03T11:44:08;1.90;;;0.40;;
26686;SDS011;14298;50.900;4.648;2022-07-03T11:46:38;3.10;;;0.60;;
26686;SDS011;14298;50.900;4.648;2022-07-03T11:49:16;2.03;;;0.70;;
26686;SDS011;14298;50.900;4.648;2022-07-03T11:51:42;6.83;;;0.77;;
26686;SDS011;14298;50.900;4.648;2022-07-03T11:54:12;2.23;;;0.60;;
26686;SDS011;14298;50.900;4.648;2022-07-03T11:56:41;2.10;;;0.67;;
26686;SDS011;14298;50.900;4.648;2022-07-03T11:59:09;1.87;;;0.50;;
26686;SDS011;14298;50.900;4.648;2022-07-03T12:01:38;2.40;;;0.47;;
26686;SDS011;14298;50.900;4.648;2022-07-03T12:04:07;3.07;;;0.50;;
26686;SDS011;14298;50.900;4.648;2022-07-03T12:06:44;1.07;;;0.60;;
26686;SDS011;14298;50.900;4.648;2022-07-03T12:09:35;0.63;;;0.60;;
26686;SDS011;14298;50.900;4.648;2022-07-03T12:12:02;1.97;;;0.60;;
26686;SDS011;14298;50.900;4.648;2022-07-03T12:14:40;0.90;;;0.50;;
26686;SDS011;14298;50.900;4.648;2022-07-03T12:17:17;1.70;;;0.50;;
26686;SDS011;14298;50.900;4.648;2022-07-03T12:19:51;2.00;;;0.60;;
26686;SDS011;14298;50.900;4.648;2022-07-03T12:22:31;1.23;;;0.60;;
26686;SDS011;14298;50.900;4.648;2022-07-03T12:27:34;2.57;;;0.80;;
26686;SDS011;14298;50.900;4.648;2022-07-03T12:30:10;1.97;;;0.70;;
26686;SDS011;14298;50.900;4.648;2022-07-03T12:32:36;2.47;;;0.70;;
26686;SDS011;14298;50.900;4.648;2022-07-03T12:35:05;1.23;;;0.60;;
26686;SDS011;14298;50.900;4.648;2022-07-03T12:37:40;2.77;;;0.50;;
26686;SDS011;14298;50.900;4.648;2022-07-03T12:40:09;1.70;;;0.50;;
26686;SDS011;14298;50.900;4.648;2022-07-03T12:42:54;1.00;;;0.43;;
26686;SDS011;14298;50.900;4.648;2022-07-03T12:45:25;2.60;;;0.60;;
26686;SDS011;14298;50.900;4.648;2022-07-03T12:47:59;0.40;;;0.30;;
26686;SDS011;14298;50.900;4.648;2022-07-03T12:50:48;3.50;;;0.70;;
26686;SDS011;14298;50.900;4.648;2022-07-03T12:53:31;2.13;;;0.60;;
26686;SDS011;14298;50.900;4.648;2022-07-03T12:56:01;1.23;;;0.53;;
26686;SDS011;14298;50.900;4.648;2022-07-03T12:58:40;3.40;;;0.40;;
26686;SDS011;14298;50.900;4.648;2022-07-03T13:01:31;1.07;;;0.50;;
26686;SDS011;14298;50.900;4.648;2022-07-03T13:04:03;2.27;;;0.47;;
26686;SDS011;14298;50.900;4.648;2022-07-03T13:06:33;1.70;;;0.70;;
26686;SDS011;14298;50.900;4.648;2022-07-03T13:09:02;1.37;;;0.50;;
26686;SDS011;14298;50.900;4.648;2022-07-03T13:11:36;1.93;;;0.50;;
26686;SDS011;14298;50.900;4.648;2022-07-03T13:14:07;1.50;;;0.50;;
26686;SDS011;14298;50.900;4.648;2022-07-03T13:16:44;1.60;;;0.50;;
26686;SDS011;14298;50.900;4.648;2022-07-03T13:19:11;2.23;;;0.53;;
26686;SDS011;14298;50.900;4.648;2022-07-03T13:21:41;2.07;;;0.40;;
26686;SDS011;14298;50.900;4.648;2022-07-03T13:24:12;9.37;;;0.67;;
26686;SDS011;14298;50.900;4.648;2022-07-03T13:26:41;2.87;;;1.10;;
26686;SDS011;14298;50.900;4.648;2022-07-03T13:29:11;3.90;;;0.73;;
26686;SDS011;14298;50.900;4.648;2022-07-03T13:31:39;2.80;;;0.60;;
26686;SDS011;14298;50.900;4.648;2022-07-03T13:34:08;2.50;;;0.90;;
26686;SDS011;14298;50.900;4.648;2022-07-03T13:36:36;0.90;;;0.50;;
26686;SDS011;14298;50.900;4.648;2022-07-03T13:39:05;3.30;;;0.60;;
26686;SDS011;14298;50.900;4.648;2022-07-03T13:41:35;1.43;;;0.60;;
26686;SDS011;14298;50.900;4.648;2022-07-03T13:44:03;1.83;;;0.50;;
26686;SDS011;14298;50.900;4.648;2022-07-03T13:46:32;3.80;;;0.70;;
26686;SDS011;14298;50.900;4.648;2022-07-03T13:49:01;0.57;;;0.50;;
26686;SDS011;14298;50.900;4.648;2022-07-03T13:51:29;2.30;;;0.60;;
26686;SDS011;14298;50.900;4.648;2022-07-03T13:53:57;2.93;;;0.53;;
26686;SDS011;14298;50.900;4.648;2022-07-03T13:56:26;2.50;;;0.60;;
26686;SDS011;14298;50.900;4.648;2022-07-03T13:58:55;4.83;;;0.77;;
26686;SDS011;14298;50.900;4.648;2022-07-03T14:01:23;1.33;;;0.60;;
26686;SDS011;14298;50.900;4.648;2022-07-03T14:03:52;1.90;;;0.60;;
26686;SDS011;14298;50.900;4.648;2022-07-03T14:06:20;2.37;;;0.70;;
26686;SDS011;14298;50.900;4.648;2022-07-03T14:08:49;3.23;;;0.90;;
26686;SDS011;14298;50.900;4.648;2022-07-03T14:11:17;1.23;;;0.50;;
26686;SDS011;14298;50.900;4.648;2022-07-03T14:13:45;2.87;;;0.60;;
26686;SDS011;14298;50.900;4.648;2022-07-03T14:16:14;2.37;;;0.43;;
26686;SDS011;14298;50.900;4.648;2022-07-03T14:18:42;4.43;;;0.60;;
26686;SDS011;14298;50.900;4.648;2022-07-03T14:21:11;2.40;;;0.80;;
26686;SDS011;14298;50.900;4.648;2022-07-03T14:23:39;2.43;;;0.80;;
26686;SDS011;14298;50.900;4.648;2022-07-03T14:26:08;0.83;;;0.57;;
26686;SDS011;14298;50.900;4.648;2022-07-03T14:28:36;3.37;;;1.03;;
26686;SDS011;14298;50.900;4.648;2022-07-03T14:31:22;1.50;;;0.50;;
26686;SDS011;14298;50.900;4.648;2022-07-03T14:33:53;1.73;;;0.70;;
26686;SDS011;14298;50.900;4.648;2022-07-03T14:36:22;1.57;;;0.57;;
26686;SDS011;14298;50.900;4.648;2022-07-03T14:38:51;2.20;;;0.40;;
26686;SDS011;14298;50.900;4.648;2022-07-03T14:41:19;3.47;;;0.67;;
26686;SDS011;14298;50.900;4.648;2022-07-03T14:43:48;1.23;;;0.60;;
26686;SDS011;14298;50.900;4.648;2022-07-03T14:46:16;1.33;;;0.70;;
26686;SDS011;14298;50.900;4.648;2022-07-03T14:48:45;3.63;;;0.60;;
26686;SDS011;14298;50.900;4.648;2022-07-03T14:51:13;3.47;;;0.60;;
26686;SDS011;14298;50.900;4.648;2022-07-03T14:53:41;3.13;;;0.67;;
26686;SDS011;14298;50.900;4.648;2022-07-03T14:56:11;2.00;;;0.60;;
26686;SDS011;14298;50.900;4.648;2022-07-03T14:58:41;1.87;;;0.60;;
26686;SDS011;14298;50.900;4.648;2022-07-03T15:01:12;1.93;;;0.60;;
26686;SDS011;14298;50.900;4.648;2022-07-03T15:03:47;2.77;;;0.70;;
26686;SDS011;14298;50.900;4.648;2022-07-03T15:06:17;11.53;;;1.00;;
26686;SDS011;14298;50.900;4.648;2022-07-03T15:08:48;0.57;;;0.47;;
26686;SDS011;14298;50.900;4.648;2022-07-03T15:11:21;2.07;;;0.53;;
26686;SDS011;14298;50.900;4.648;2022-07-03T15:14:09;1.83;;;0.50;;
26686;SDS011;14298;50.900;4.648;2022-07-03T15:16:40;2.03;;;0.70;;
26686;SDS011;14298;50.900;4.648;2022-07-03T15:19:11;1.50;;;0.60;;
26686;SDS011;14298;50.900;4.648;2022-07-03T15:21:39;1.63;;;0.60;;
26686;SDS011;14298;50.900;4.648;2022-07-03T15:24:08;1.37;;;0.60;;
26686;SDS011;14298;50.900;4.648;2022-07-03T15:26:38;1.33;;;0.60;;
26686;SDS011;14298;50.900;4.648;2022-07-03T15:29:08;1.77;;;0.70;;
26686;SDS011;14298;50.900;4.648;2022-07-03T15:31:39;3.67;;;0.60;;
26686;SDS011;14298;50.900;4.648;2022-07-03T15:34:08;4.87;;;0.70;;
26686;SDS011;14298;50.900;4.648;2022-07-03T15:36:48;1.87;;;0.60;;
26686;SDS011;14298;50.900;4.648;2022-07-03T15:39:25;4.70;;;0.70;;
26686;SDS011;14298;50.900;4.648;2022-07-03T15:44:46;1.50;;;0.60;;
26686;SDS011;14298;50.900;4.648;2022-07-03T15:47:27;2.60;;;0.83;;
26686;SDS011;14298;50.900;4.648;2022-07-03T15:50:19;2.57;;;0.60;;
26686;SDS011;14298;50.900;4.648;2022-07-03T15:52:49;2.57;;;0.70;;
26686;SDS011;14298;50.900;4.648;2022-07-03T15:55:18;1.63;;;0.53;;
26686;SDS011;14298;50.900;4.648;2022-07-03T15:57:50;2.40;;;0.60;;
26686;SDS011;14298;50.900;4.648;2022-07-03T16:00:21;2.63;;;0.50;;
26686;SDS011;14298;50.900;4.648;2022-07-03T16:03:02;1.80;;;0.50;;
26686;SDS011;14298;50.900;4.648;2022-07-03T16:05:48;2.00;;;0.60;;
26686;SDS011;14298;50.900;4.648;2022-07-03T16:08:17;3.90;;;0.60;;
26686;SDS011;14298;50.900;4.648;2022-07-03T16:10:48;1.37;;;0.60;;
26686;SDS011;14298;50.900;4.648;2022-07-03T16:13:19;2.30;;;0.50;;
26686;SDS011;14298;50.900;4.648;2022-07-03T16:15:52;2.70;;;0.60;;
26686;SDS011;14298;50.900;4.648;2022-07-03T16:18:24;5.80;;;0.77;;
26686;SDS011;14298;50.900;4.648;2022-07-03T16:20:53;4.33;;;0.80;;
26686;SDS011;14298;50.900;4.648;2022-07-03T16:23:22;0.83;;;0.60;;